createdAt,value
2018-07-14T00:49:13.829Z,9.98
2018-07-14T00:49:46.587Z,10.05
2018-07-14T00:50:19.310Z,10.60
2018-07-14T00:50:52.042Z,9.75
2018-07-14T00:51:24.878Z,8.23
2018-07-14T00:51:57.723Z,8.03
2018-07-14T00:52:30.506Z,8.63
2018-07-14T00:53:03.239Z,8.75
2018-07-14T00:53:35.963Z,8.28
2018-07-14T00:54:08.678Z,8.23
2018-07-14T00:54:41.395Z,7.58
2018-07-14T00:55:14.122Z,12.70
2018-07-14T00:55:46.822Z,8.33
2018-07-14T00:56:19.514Z,7.12
2018-07-14T00:56:52.230Z,7.03
2018-07-14T00:57:24.943Z,9.68
2018-07-14T00:57:57.849Z,6.40
2018-07-14T00:58:30.746Z,8.10
2018-07-14T00:59:03.491Z,8.08
2018-07-14T00:59:36.351Z,7.53
2018-07-14T01:00:09.126Z,7.17
2018-07-14T01:00:41.918Z,7.12
2018-07-14T01:01:14.654Z,6.42
2018-07-14T01:01:47.342Z,10.93
2018-07-14T01:02:20.070Z,7.70
2018-07-14T01:02:52.786Z,6.70
2018-07-14T01:03:25.514Z,9.43
2018-07-14T01:03:58.203Z,12.65
2018-07-14T01:04:30.916Z,26.37
2018-07-14T01:05:03.611Z,20.60
2018-07-14T01:05:36.360Z,17.45
2018-07-14T01:06:09.062Z,9.88
2018-07-14T01:06:41.778Z,7.83
2018-07-14T01:07:14.475Z,7.65
2018-07-14T01:07:47.210Z,45.88
2018-07-14T01:08:19.935Z,21.62
2018-07-14T01:08:52.631Z,11.45
2018-07-14T01:09:25.323Z,10.03
2018-07-14T01:09:58.039Z,7.35
2018-07-14T01:10:30.791Z,7.90
2018-07-14T01:11:03.575Z,7.53
2018-07-14T01:11:36.310Z,7.25
2018-07-14T01:12:09.030Z,7.15
2018-07-14T01:12:41.764Z,6.90
2018-07-14T01:13:14.478Z,6.55
2018-07-14T01:13:47.171Z,6.95
2018-07-14T01:14:19.802Z,6.92
2018-07-14T01:14:52.554Z,6.53
2018-07-14T01:15:25.254Z,7.87
2018-07-14T01:15:57.983Z,7.20
2018-07-14T01:16:30.738Z,6.12
2018-07-14T01:17:03.535Z,7.75
2018-07-14T01:17:36.289Z,6.30
2018-07-14T01:18:08.979Z,6.22
2018-07-14T01:18:41.678Z,6.03
2018-07-14T01:19:14.376Z,5.37
2018-07-14T01:19:47.331Z,7.05
2018-07-14T01:20:20.039Z,6.70
2018-07-14T01:20:52.775Z,6.60
2018-07-14T01:21:25.477Z,6.03
2018-07-14T01:21:58.234Z,6.28
2018-07-14T01:22:30.930Z,6.10
2018-07-14T01:23:03.642Z,6.70
2018-07-14T01:23:36.339Z,6.75
2018-07-14T01:24:09.096Z,6.83
2018-07-14T01:24:41.815Z,6.00
2018-07-14T01:25:14.591Z,6.08
2018-07-14T01:25:47.314Z,5.85
2018-07-14T01:26:20.050Z,6.03
2018-07-14T01:26:52.782Z,5.95
2018-07-14T01:27:25.595Z,7.15
2018-07-14T01:27:58.334Z,6.50
2018-07-14T01:28:31.020Z,5.78
2018-07-14T01:29:03.746Z,6.25
2018-07-14T01:29:36.467Z,6.28
2018-07-14T01:30:09.726Z,6.20
2018-07-14T01:30:42.458Z,6.15
2018-07-14T01:31:15.142Z,7.15
2018-07-14T01:31:47.863Z,6.67
2018-07-14T01:32:20.715Z,6.33
2018-07-14T01:32:53.450Z,5.78
2018-07-14T01:33:26.199Z,6.50
2018-07-14T01:33:58.934Z,6.28
2018-07-14T01:34:31.731Z,6.50
2018-07-14T01:35:05.202Z,6.20
2018-07-14T01:35:37.918Z,6.92
2018-07-14T01:36:10.640Z,6.85
2018-07-14T01:36:43.386Z,6.60
2018-07-14T01:37:16.122Z,5.85
2018-07-14T01:37:48.862Z,5.60
2018-07-14T01:38:21.590Z,6.72
2018-07-14T01:38:54.310Z,6.00
2018-07-14T01:39:27.026Z,5.85
2018-07-14T01:39:59.706Z,6.37
2018-07-14T01:40:32.481Z,6.20
2018-07-14T01:41:05.182Z,6.45
2018-07-14T01:41:37.870Z,6.25
2018-07-14T01:42:10.654Z,7.37
2018-07-14T01:42:43.375Z,5.85
2018-07-14T01:43:16.086Z,6.05
2018-07-14T01:43:49.477Z,7.15
2018-07-14T01:44:22.198Z,6.15
2018-07-14T01:44:54.923Z,6.80
2018-07-14T01:45:27.674Z,7.00
2018-07-14T01:46:00.375Z,7.15
2018-07-14T01:46:33.092Z,5.85
2018-07-14T01:47:05.808Z,6.10
2018-07-14T01:47:38.595Z,6.05
2018-07-14T01:48:11.294Z,6.10
2018-07-14T01:48:43.987Z,6.28
2018-07-14T01:49:17.023Z,5.03
2018-07-14T01:49:49.734Z,5.55
2018-07-14T01:50:22.471Z,6.37
2018-07-14T01:50:55.238Z,6.40
2018-07-14T01:51:27.994Z,6.55
2018-07-14T01:52:00.763Z,6.25
2018-07-14T01:52:33.459Z,6.37
2018-07-14T01:53:06.383Z,7.10
2018-07-14T01:53:39.086Z,6.72
2018-07-14T01:54:11.833Z,6.95
2018-07-14T01:54:44.570Z,6.58
2018-07-14T01:55:17.265Z,6.45
2018-07-14T01:55:50.037Z,6.10
2018-07-14T01:56:22.750Z,6.25
2018-07-14T01:56:55.735Z,7.25
2018-07-14T01:57:28.450Z,6.03
2018-07-14T01:58:01.154Z,6.03
2018-07-14T01:58:33.862Z,6.65
2018-07-14T01:59:06.571Z,6.55
2018-07-14T01:59:39.338Z,7.05
2018-07-14T02:00:12.112Z,6.80
2018-07-14T02:00:44.817Z,6.58
2018-07-14T02:01:17.534Z,6.78
2018-07-14T02:01:50.255Z,6.00
2018-07-14T02:02:22.999Z,6.70
2018-07-14T02:02:55.806Z,6.25
2018-07-14T02:03:28.546Z,6.45
2018-07-14T02:04:01.189Z,5.87
2018-07-14T02:04:33.911Z,6.65
2018-07-14T02:05:07.002Z,6.50
2018-07-14T02:05:39.755Z,6.50
2018-07-14T02:06:12.463Z,6.22
2018-07-14T02:06:45.182Z,6.10
2018-07-14T02:07:17.927Z,6.08
2018-07-14T02:07:50.840Z,6.53
2018-07-14T02:08:23.554Z,6.22
2018-07-14T02:08:56.286Z,5.85
2018-07-14T02:09:28.993Z,7.17
2018-07-14T02:10:01.707Z,6.10
2018-07-14T02:10:34.450Z,6.47
2018-07-14T02:11:07.254Z,5.85
2018-07-14T02:11:39.999Z,6.53
2018-07-14T02:12:12.710Z,6.35
2018-07-14T02:12:45.402Z,6.10
2018-07-14T02:13:18.138Z,6.80
2018-07-14T02:13:50.870Z,6.65
2018-07-14T02:14:23.598Z,6.72
2018-07-14T02:14:56.338Z,6.95
2018-07-14T02:15:29.086Z,6.22
2018-07-14T02:16:01.786Z,6.53
2018-07-14T02:16:34.510Z,6.47
2018-07-14T02:17:07.867Z,5.90
2018-07-14T02:17:40.591Z,7.22
2018-07-14T02:18:13.302Z,6.87
2018-07-14T02:18:46.031Z,7.47
2018-07-14T02:19:18.735Z,6.15
2018-07-14T02:19:51.455Z,5.50
2018-07-14T02:20:24.199Z,6.50
2018-07-14T02:20:56.926Z,5.67
2018-07-14T02:21:29.719Z,6.97
2018-07-14T02:22:02.443Z,6.10
2018-07-14T02:22:35.170Z,6.12
2018-07-14T02:23:07.898Z,5.50
2018-07-14T02:23:40.662Z,6.70
2018-07-14T02:24:13.358Z,6.62
2018-07-14T02:24:46.059Z,5.92
2018-07-14T02:25:18.775Z,6.78
2018-07-14T02:25:51.486Z,5.72
2018-07-14T02:26:24.162Z,6.30
2018-07-14T02:26:56.872Z,6.37
2018-07-14T02:27:29.592Z,5.90
2018-07-14T02:28:02.334Z,5.90
2018-07-14T02:28:35.033Z,6.25
2018-07-14T02:29:07.839Z,5.75
2018-07-14T02:29:40.558Z,5.50
2018-07-14T02:30:13.279Z,6.45
2018-07-14T02:30:45.978Z,6.45
2018-07-14T02:31:18.731Z,6.95
2018-07-14T02:31:51.438Z,6.72
2018-07-14T02:32:24.170Z,6.75
2018-07-14T02:32:56.879Z,6.05
2018-07-14T02:33:29.570Z,6.05
2018-07-14T02:34:02.243Z,6.53
2018-07-14T02:34:34.966Z,6.30
2018-07-14T02:35:07.678Z,5.95
2018-07-14T02:35:40.386Z,6.37
2018-07-14T02:36:13.091Z,6.83
2018-07-14T02:36:45.815Z,6.75
2018-07-14T02:37:18.558Z,6.50
2018-07-14T02:37:51.298Z,6.22
2018-07-14T02:38:24.034Z,5.50
2018-07-14T02:38:56.747Z,6.70
2018-07-14T02:39:29.443Z,6.97
2018-07-14T02:40:02.123Z,6.45
2018-07-14T02:40:34.835Z,5.72
2018-07-14T02:41:07.539Z,7.10
2018-07-14T02:41:40.276Z,6.45
2018-07-14T02:42:12.975Z,6.58
2018-07-14T02:42:45.670Z,5.58
2018-07-14T02:43:18.381Z,5.95
2018-07-14T02:43:51.123Z,6.40
2018-07-14T02:44:23.819Z,6.83
2018-07-14T02:44:56.596Z,6.70
2018-07-14T02:45:29.314Z,6.25
2018-07-14T02:46:02.050Z,6.17
2018-07-14T02:46:34.844Z,5.47
2018-07-14T02:47:07.575Z,6.37
2018-07-14T02:47:40.279Z,6.20
2018-07-14T02:48:12.986Z,7.08
2018-07-14T02:48:45.702Z,6.42
2018-07-14T02:49:18.627Z,6.67
2018-07-14T02:49:51.307Z,6.22
2018-07-14T02:50:24.019Z,6.72
2018-07-14T02:50:56.734Z,5.97
2018-07-14T02:51:29.451Z,5.83
2018-07-14T02:52:02.172Z,5.60
2018-07-14T02:52:34.863Z,5.95
2018-07-14T02:53:07.571Z,6.55
2018-07-14T02:53:40.298Z,5.62
2018-07-14T02:54:13.023Z,6.30
2018-07-14T02:54:45.962Z,5.90
2018-07-14T02:55:18.662Z,6.30
2018-07-14T02:55:51.366Z,5.62
2018-07-14T02:56:24.082Z,6.17
2018-07-14T02:56:56.802Z,6.90
2018-07-14T02:57:29.491Z,6.08
2018-07-14T02:58:02.170Z,5.60
2018-07-14T02:58:34.890Z,6.87
2018-07-14T02:59:07.582Z,6.17
2018-07-14T02:59:40.313Z,6.65
2018-07-14T03:00:13.074Z,6.70
2018-07-14T03:00:45.802Z,6.33
2018-07-14T03:01:18.515Z,6.50
2018-07-14T03:01:51.226Z,7.08
2018-07-14T03:02:23.928Z,5.72
2018-07-14T03:02:56.686Z,6.35
2018-07-14T03:03:29.395Z,6.03
2018-07-14T03:04:02.088Z,7.20
2018-07-14T03:04:34.786Z,5.97
2018-07-14T03:05:07.537Z,7.10
2018-07-14T03:05:40.268Z,6.42
2018-07-14T03:06:12.990Z,6.83
2018-07-14T03:06:45.679Z,6.60
2018-07-14T03:07:18.419Z,5.75
2018-07-14T03:07:51.118Z,6.47
2018-07-14T03:08:23.778Z,6.10
2018-07-14T03:08:56.482Z,5.58
2018-07-14T03:09:29.184Z,6.58
2018-07-14T03:10:01.919Z,6.30
2018-07-14T03:10:34.638Z,5.85
2018-07-14T03:11:07.370Z,5.87
2018-07-14T03:11:40.110Z,6.87
2018-07-14T03:12:12.750Z,6.55
2018-07-14T03:12:45.705Z,6.47
2018-07-14T03:13:18.376Z,6.78
2018-07-14T03:13:51.115Z,6.12
2018-07-14T03:14:23.875Z,5.75
2018-07-14T03:14:56.591Z,5.95
2018-07-14T03:15:29.319Z,7.35
2018-07-14T03:16:02.069Z,6.65
2018-07-14T03:16:34.816Z,6.35
2018-07-14T03:17:07.514Z,6.15
2018-07-14T03:17:40.226Z,6.05
2018-07-14T03:18:12.917Z,6.50
2018-07-14T03:18:45.598Z,5.97
2018-07-14T03:19:18.378Z,7.10
2018-07-14T03:19:51.022Z,6.45
2018-07-14T03:20:23.731Z,6.75
2018-07-14T03:20:56.455Z,6.75
2018-07-14T03:21:29.162Z,5.80
2018-07-14T03:22:01.904Z,7.15
2018-07-14T03:22:34.622Z,6.20
2018-07-14T03:23:07.502Z,7.15
2018-07-14T03:23:40.224Z,6.00
2018-07-14T03:24:12.958Z,6.40
2018-07-14T03:24:45.634Z,6.42
2018-07-14T03:25:18.339Z,6.58
2018-07-14T03:25:51.069Z,6.60
2018-07-14T03:26:23.898Z,7.10
2018-07-14T03:26:56.618Z,6.58
2018-07-14T03:27:29.386Z,6.70
2018-07-14T03:28:02.059Z,6.05
2018-07-14T03:28:34.775Z,6.50
2018-07-14T03:29:07.484Z,5.80
2018-07-14T03:29:40.246Z,6.15
2018-07-14T03:30:12.950Z,6.58
2018-07-14T03:30:45.634Z,5.67
2018-07-14T03:31:18.350Z,6.45
2018-07-14T03:31:51.078Z,6.30
2018-07-14T03:32:23.833Z,5.78
2018-07-14T03:32:56.558Z,6.62
2018-07-14T03:33:29.235Z,5.95
2018-07-14T03:34:01.950Z,6.03
2018-07-14T03:34:34.642Z,6.85
2018-07-14T03:35:07.351Z,6.30
2018-07-14T03:35:40.064Z,6.75
2018-07-14T03:36:12.766Z,7.40
2018-07-14T03:36:45.483Z,6.75
2018-07-14T03:37:18.186Z,6.50
2018-07-14T03:37:50.926Z,6.03
2018-07-14T03:38:23.677Z,6.37
2018-07-14T03:38:56.358Z,6.47
2018-07-14T03:39:29.054Z,6.47
2018-07-14T03:40:01.739Z,5.97
2018-07-14T03:40:34.482Z,5.75
2018-07-14T03:41:07.739Z,5.80
2018-07-14T03:41:40.434Z,7.03
2018-07-14T03:42:13.146Z,6.95
2018-07-14T03:42:45.826Z,7.17
2018-07-14T03:43:18.559Z,7.08
2018-07-14T03:43:51.314Z,5.45
2018-07-14T03:44:23.989Z,5.60
2018-07-14T03:44:56.699Z,6.50
2018-07-14T03:45:29.458Z,7.42
2018-07-14T03:46:02.169Z,7.03
2018-07-14T03:46:34.902Z,5.87
2018-07-14T03:47:07.635Z,6.45
2018-07-14T03:47:40.342Z,5.85
2018-07-14T03:48:13.052Z,5.78
2018-07-14T03:48:45.742Z,5.72
2018-07-14T03:49:18.498Z,6.30
2018-07-14T03:49:51.215Z,6.12
2018-07-14T03:50:23.940Z,7.30
2018-07-14T03:50:56.682Z,6.50
2018-07-14T03:51:29.396Z,6.37
2018-07-14T03:52:02.115Z,5.87
2018-07-14T03:52:35.235Z,7.78
2018-07-14T03:53:07.979Z,6.25
2018-07-14T03:53:40.659Z,6.42
2018-07-14T03:54:13.373Z,6.55
2018-07-14T03:54:46.086Z,6.08
2018-07-14T03:55:18.846Z,6.40
2018-07-14T03:55:51.571Z,5.87
2018-07-14T03:56:24.296Z,5.80
2018-07-14T03:56:57.043Z,6.30
2018-07-14T03:57:29.742Z,6.08
2018-07-14T03:58:02.471Z,5.75
2018-07-14T03:58:35.183Z,6.42
2018-07-14T03:59:07.891Z,6.45
2018-07-14T03:59:40.634Z,5.80
2018-07-14T04:00:13.397Z,5.62
2018-07-14T04:00:46.114Z,5.35
2018-07-14T04:01:18.834Z,5.45
2018-07-14T04:01:51.442Z,7.45
2018-07-14T04:02:24.169Z,5.75
2018-07-14T04:02:56.798Z,6.20
2018-07-14T04:03:29.490Z,6.30
2018-07-14T04:04:02.182Z,6.22
2018-07-14T04:04:34.872Z,6.20
2018-07-14T04:05:07.550Z,6.22
2018-07-14T04:05:40.251Z,5.95
2018-07-14T04:06:13.018Z,6.12
2018-07-14T04:06:45.711Z,6.12
2018-07-14T04:07:18.691Z,6.20
2018-07-14T04:07:51.418Z,5.45
2018-07-14T04:08:24.130Z,6.05
2018-07-14T04:08:56.819Z,5.95
2018-07-14T04:09:29.511Z,6.35
2018-07-14T04:10:02.461Z,6.15
2018-07-14T04:10:35.169Z,6.20
2018-07-14T04:11:07.794Z,6.85
2018-07-14T04:11:40.499Z,5.87
2018-07-14T04:12:13.223Z,6.83
2018-07-14T04:12:45.928Z,6.60
2018-07-14T04:13:18.646Z,6.65
2018-07-14T04:13:51.378Z,4.92
2018-07-14T04:14:24.086Z,6.65
2018-07-14T04:14:56.783Z,6.20
2018-07-14T04:15:29.474Z,5.60
2018-07-14T04:16:02.354Z,5.83
2018-07-14T04:16:35.099Z,5.92
2018-07-14T04:17:07.806Z,6.35
2018-07-14T04:17:40.522Z,6.08
2018-07-14T04:18:13.218Z,6.12
2018-07-14T04:18:45.931Z,5.60
2018-07-14T04:19:18.698Z,6.33
2018-07-14T04:19:51.382Z,6.22
2018-07-14T04:20:24.066Z,6.70
2018-07-14T04:20:56.795Z,6.60
2018-07-14T04:21:29.489Z,6.92
2018-07-14T04:22:02.214Z,6.75
2018-07-14T04:22:34.922Z,6.00
2018-07-14T04:23:07.610Z,6.00
2018-07-14T04:23:40.315Z,6.17
2018-07-14T04:24:13.021Z,6.55
2018-07-14T04:24:45.742Z,5.70
2018-07-14T04:25:18.422Z,6.50
2018-07-14T04:25:51.098Z,6.20
2018-07-14T04:26:23.799Z,6.28
2018-07-14T04:26:56.499Z,7.12
2018-07-14T04:27:29.223Z,7.00
2018-07-14T04:28:02.045Z,6.62
2018-07-14T04:28:34.730Z,6.25
2018-07-14T04:29:07.542Z,7.03
2018-07-14T04:29:40.240Z,6.33
2018-07-14T04:30:12.963Z,6.53
2018-07-14T04:30:45.698Z,5.92
2018-07-14T04:31:18.442Z,5.53
2018-07-14T04:31:51.288Z,5.80
2018-07-14T04:32:24.015Z,5.60
2018-07-14T04:32:56.814Z,6.47
2018-07-14T04:33:29.458Z,6.67
2018-07-14T04:34:02.159Z,6.10
2018-07-14T04:34:34.887Z,6.15
2018-07-14T04:35:07.590Z,5.85
2018-07-14T04:35:40.299Z,6.10
2018-07-14T04:36:13.006Z,6.12
2018-07-14T04:36:45.714Z,6.55
2018-07-14T04:37:18.341Z,6.83
2018-07-14T04:37:51.042Z,5.75
2018-07-14T04:38:23.818Z,6.05
2018-07-14T04:38:56.503Z,6.25
2018-07-14T04:39:29.230Z,6.28
2018-07-14T04:40:01.939Z,6.42
2018-07-14T04:40:34.646Z,6.10
2018-07-14T04:41:07.355Z,5.83
2018-07-14T04:41:40.079Z,6.20
2018-07-14T04:42:12.759Z,6.00
2018-07-14T04:42:45.423Z,6.20
2018-07-14T04:43:18.178Z,5.70
2018-07-14T04:43:50.906Z,5.58
2018-07-14T04:44:23.606Z,6.42
2018-07-14T04:44:56.318Z,6.50
2018-07-14T04:45:29.014Z,6.20
2018-07-14T04:46:01.726Z,5.58
2018-07-14T04:46:34.430Z,6.53
2018-07-14T04:47:07.122Z,6.45
2018-07-14T04:47:39.839Z,6.45
2018-07-14T04:48:12.546Z,6.30
2018-07-14T04:48:45.283Z,6.08
2018-07-14T04:49:18.102Z,6.40
2018-07-14T04:49:50.798Z,6.58
2018-07-14T04:50:23.518Z,5.72
2018-07-14T04:50:56.455Z,6.08
2018-07-14T04:51:29.174Z,6.62
2018-07-14T04:52:01.919Z,6.50
2018-07-14T04:52:34.690Z,5.97
2018-07-14T04:53:07.388Z,6.35
2018-07-14T04:53:40.062Z,5.67
2018-07-14T04:54:12.787Z,5.70
2018-07-14T04:54:45.494Z,6.33
2018-07-14T04:55:18.287Z,7.45
2018-07-14T04:55:50.997Z,6.50
2018-07-14T04:56:23.694Z,6.17
2018-07-14T04:56:56.442Z,6.50
2018-07-14T04:57:29.166Z,7.00
2018-07-14T04:58:01.866Z,6.78
2018-07-14T04:58:34.503Z,6.15
2018-07-14T04:59:07.259Z,5.53
2018-07-14T04:59:39.962Z,5.92
2018-07-14T05:00:12.695Z,6.78
2018-07-14T05:00:45.398Z,6.78
2018-07-14T05:01:18.117Z,5.87
2018-07-14T05:01:50.822Z,6.55
2018-07-14T05:02:23.542Z,6.33
2018-07-14T05:02:56.163Z,6.37
2018-07-14T05:03:28.898Z,6.95
2018-07-14T05:04:01.595Z,6.50
2018-07-14T05:04:34.318Z,6.97
2018-07-14T05:05:07.058Z,6.60
2018-07-14T05:05:39.792Z,5.92
2018-07-14T05:06:12.501Z,5.97
2018-07-14T05:06:45.211Z,6.28
2018-07-14T05:07:17.919Z,6.28
2018-07-14T05:07:50.605Z,5.87
2018-07-14T05:08:23.598Z,6.33
2018-07-14T05:08:56.362Z,5.95
2018-07-14T05:09:29.102Z,5.62
2018-07-14T05:10:01.831Z,6.55
2018-07-14T05:10:34.542Z,5.62
2018-07-14T05:11:07.481Z,5.25
2018-07-14T05:11:40.186Z,6.40
2018-07-14T05:12:12.906Z,6.33
2018-07-14T05:12:45.622Z,5.97
2018-07-14T05:13:18.583Z,5.80
2018-07-14T05:13:51.315Z,5.90
2018-07-14T05:14:24.055Z,5.45
2018-07-14T05:14:56.758Z,5.75
2018-07-14T05:15:29.484Z,5.50
2018-07-14T05:16:02.167Z,5.80
2018-07-14T05:16:34.925Z,6.03
2018-07-14T05:17:07.630Z,5.20
2018-07-14T05:17:40.303Z,5.92
2018-07-14T05:18:12.983Z,5.90
2018-07-14T05:18:45.687Z,5.08
2018-07-14T05:19:18.551Z,5.87
2018-07-14T05:19:51.246Z,5.53
2018-07-14T05:20:23.991Z,5.35
2018-07-14T05:20:56.695Z,5.05
2018-07-14T05:21:29.456Z,5.92
2018-07-14T05:22:02.151Z,5.58
2018-07-14T05:22:34.867Z,6.15
2018-07-14T05:23:07.601Z,6.55
2018-07-14T05:23:40.298Z,5.55
2018-07-14T05:24:13.023Z,5.80
2018-07-14T05:24:45.734Z,5.15
2018-07-14T05:25:18.550Z,4.70
2018-07-14T05:25:51.247Z,6.25
2018-07-14T05:26:23.939Z,5.45
2018-07-14T05:26:56.706Z,5.70
2018-07-14T05:27:29.490Z,4.87
2018-07-14T05:28:02.204Z,5.90
2018-07-14T05:28:34.892Z,5.53
2018-07-14T05:29:07.607Z,5.05
2018-07-14T05:29:40.315Z,5.20
2018-07-14T05:30:13.027Z,5.10
2018-07-14T05:30:45.767Z,5.35
2018-07-14T05:31:18.979Z,5.22
2018-07-14T05:31:51.703Z,5.62
2018-07-14T05:32:24.435Z,5.17
2018-07-14T05:32:57.195Z,5.92
2018-07-14T05:33:29.882Z,5.25
2018-07-14T05:34:02.614Z,5.78
2018-07-14T05:34:35.502Z,5.25
2018-07-14T05:35:08.260Z,5.85
2018-07-14T05:35:40.970Z,5.20
2018-07-14T05:36:13.659Z,5.03
2018-07-14T05:36:46.477Z,5.42
2018-07-14T05:37:19.232Z,5.15
2018-07-14T05:37:52.091Z,5.35
2018-07-14T05:38:24.859Z,5.03
2018-07-14T05:38:57.634Z,5.58
2018-07-14T05:39:30.354Z,5.33
2018-07-14T05:40:03.137Z,4.65
2018-07-14T05:40:35.842Z,4.97
2018-07-14T05:41:08.534Z,5.45
2018-07-14T05:41:41.231Z,5.05
2018-07-14T05:42:13.918Z,5.58
2018-07-14T05:42:46.647Z,5.15
2018-07-14T05:43:19.412Z,5.10
2018-07-14T05:43:52.137Z,5.95
2018-07-14T05:44:24.818Z,4.65
2018-07-14T05:44:57.786Z,4.87
2018-07-14T05:45:30.487Z,4.65
2018-07-14T05:46:03.265Z,4.70
2018-07-14T05:46:35.978Z,4.45
2018-07-14T05:47:08.707Z,5.40
2018-07-14T05:47:41.422Z,4.75
2018-07-14T05:48:14.134Z,5.65
2018-07-14T05:48:46.982Z,4.78
2018-07-14T05:49:19.762Z,4.70
2018-07-14T05:49:52.509Z,4.70
2018-07-14T05:50:25.231Z,4.65
2018-07-14T05:50:57.970Z,4.97
2018-07-14T05:51:30.870Z,4.50
2018-07-14T05:52:03.647Z,4.70
2018-07-14T05:52:36.334Z,5.15
2018-07-14T05:53:09.038Z,5.00
2018-07-14T05:53:41.774Z,4.85
2018-07-14T05:54:14.482Z,5.35
2018-07-14T05:54:47.231Z,4.95
2018-07-14T05:55:19.950Z,4.37
2018-07-14T05:55:52.647Z,4.10
2018-07-14T05:56:25.355Z,4.85
2018-07-14T05:56:58.079Z,5.03
2018-07-14T05:57:30.811Z,5.28
2018-07-14T05:58:03.610Z,5.28
2018-07-14T05:58:36.331Z,5.17
2018-07-14T05:59:09.040Z,4.58
2018-07-14T05:59:41.770Z,4.45
2018-07-14T06:00:14.567Z,4.05
2018-07-14T06:00:47.319Z,4.62
2018-07-14T06:01:20.027Z,4.50
2018-07-14T06:01:52.790Z,5.00
2018-07-14T06:02:25.532Z,4.28
2018-07-14T06:02:58.282Z,5.08
2018-07-14T06:03:31.026Z,4.72
2018-07-14T06:04:03.878Z,4.53
2018-07-14T06:04:36.614Z,4.40
2018-07-14T06:05:09.364Z,4.20
2018-07-14T06:05:42.122Z,4.55
2018-07-14T06:06:14.882Z,4.40
2018-07-14T06:06:47.606Z,5.70
2018-07-14T06:07:20.378Z,4.55
2018-07-14T06:07:53.094Z,4.28
2018-07-14T06:08:25.816Z,4.90
2018-07-14T06:08:58.542Z,4.62
2018-07-14T06:09:31.303Z,4.70
2018-07-14T06:10:04.089Z,4.92
2018-07-14T06:10:36.807Z,4.80
2018-07-14T06:11:09.546Z,5.12
2018-07-14T06:11:42.311Z,4.50
2018-07-14T06:12:15.019Z,5.08
2018-07-14T06:12:47.775Z,5.17
2018-07-14T06:13:20.522Z,4.65
2018-07-14T06:13:53.221Z,5.40
2018-07-14T06:14:25.995Z,4.63
2018-07-14T06:14:58.691Z,4.53
2018-07-14T06:15:31.406Z,4.75
2018-07-14T06:16:04.130Z,5.50
2018-07-14T06:16:37.026Z,5.00
2018-07-14T06:17:09.773Z,4.67
2018-07-14T06:17:42.530Z,5.20
2018-07-14T06:18:15.278Z,5.10
2018-07-14T06:18:48.051Z,4.70
2018-07-14T06:19:20.877Z,5.33
2018-07-14T06:19:53.598Z,5.20
2018-07-14T06:20:26.293Z,4.67
2018-07-14T06:20:59.042Z,4.80
2018-07-14T06:21:31.778Z,4.87
2018-07-14T06:22:04.546Z,4.57
2018-07-14T06:22:37.286Z,4.50
2018-07-14T06:23:10.007Z,4.90
2018-07-14T06:23:42.754Z,4.07
2018-07-14T06:24:15.654Z,4.63
2018-07-14T06:24:48.357Z,4.10
2018-07-14T06:25:21.090Z,4.60
2018-07-14T06:25:53.815Z,4.40
2018-07-14T06:26:26.535Z,4.33
2018-07-14T06:26:59.262Z,4.70
2018-07-14T06:27:32.003Z,4.53
2018-07-14T06:28:04.737Z,4.30
2018-07-14T06:28:37.490Z,4.00
2018-07-14T06:29:10.242Z,4.17
2018-07-14T06:29:42.952Z,5.10
2018-07-14T06:30:15.667Z,4.20
2018-07-14T06:30:48.375Z,4.50
2018-07-14T06:31:21.086Z,4.67
2018-07-14T06:31:53.807Z,4.27
2018-07-14T06:32:26.519Z,4.60
2018-07-14T06:32:59.259Z,4.60
2018-07-14T06:33:32.000Z,4.73
2018-07-14T06:34:05.244Z,4.50
2018-07-14T06:34:37.950Z,4.70
2018-07-14T06:35:10.647Z,4.87
2018-07-14T06:35:43.375Z,4.70
2018-07-14T06:36:16.063Z,4.97
2018-07-14T06:36:48.786Z,4.77
2018-07-14T06:37:21.523Z,4.60
2018-07-14T06:37:54.274Z,4.10
2018-07-14T06:38:27.090Z,4.73
2018-07-14T06:38:59.763Z,4.60
2018-07-14T06:39:32.493Z,4.20
2018-07-14T06:40:05.290Z,4.70
2018-07-14T06:40:37.986Z,4.50
2018-07-14T06:41:10.738Z,4.70
2018-07-14T06:41:43.467Z,4.07
2018-07-14T06:42:16.195Z,4.57
2018-07-14T06:42:48.910Z,4.60
2018-07-14T06:43:21.607Z,4.50
2018-07-14T06:43:54.359Z,4.10
2018-07-14T06:44:27.078Z,4.33
2018-07-14T06:44:59.811Z,4.57
2018-07-14T06:45:32.564Z,4.67
2018-07-14T06:46:05.662Z,4.60
2018-07-14T06:46:38.375Z,4.47
2018-07-14T06:47:11.082Z,4.50
2018-07-14T06:47:43.812Z,4.70
2018-07-14T06:48:16.570Z,4.77
2018-07-14T06:48:49.287Z,5.23
2018-07-14T06:49:22.055Z,4.73
2018-07-14T06:49:54.726Z,4.53
2018-07-14T06:50:27.438Z,5.23
2018-07-14T06:51:00.174Z,4.20
2018-07-14T06:51:32.923Z,4.53
2018-07-14T06:52:05.859Z,4.30
2018-07-14T06:52:38.584Z,4.50
2018-07-14T06:53:11.290Z,4.13
2018-07-14T06:53:44.017Z,4.90
2018-07-14T06:54:16.789Z,4.50
2018-07-14T06:54:49.557Z,4.90
2018-07-14T06:55:22.490Z,4.57
2018-07-14T06:55:55.201Z,5.23
2018-07-14T06:56:27.922Z,5.07
2018-07-14T06:57:00.650Z,4.53
2018-07-14T06:57:33.354Z,4.57
2018-07-14T06:58:06.371Z,4.37
2018-07-14T06:58:39.087Z,4.70
2018-07-14T06:59:11.822Z,4.30
2018-07-14T06:59:44.488Z,5.07
2018-07-14T07:00:17.244Z,4.63
2018-07-14T07:00:49.967Z,4.70
2018-07-14T07:01:22.679Z,4.90
2018-07-14T07:01:55.367Z,4.73
2018-07-14T07:02:28.086Z,4.60
2018-07-14T07:03:00.838Z,4.80
2018-07-14T07:03:33.534Z,5.23
2018-07-14T07:04:06.258Z,4.70
2018-07-14T07:04:39.046Z,5.10
2018-07-14T07:05:11.729Z,5.10
2018-07-14T07:05:44.483Z,4.10
2018-07-14T07:06:17.174Z,5.03
2018-07-14T07:06:49.888Z,4.73
2018-07-14T07:07:22.613Z,4.93
2018-07-14T07:07:55.306Z,5.53
2018-07-14T07:08:28.010Z,3.97
2018-07-14T07:09:00.716Z,4.27
2018-07-14T07:09:33.434Z,4.70
2018-07-14T07:10:06.170Z,5.03
2018-07-14T07:10:38.874Z,5.30
2018-07-14T07:11:12.442Z,5.37
2018-07-14T07:11:45.235Z,3.90
2018-07-14T07:12:18.030Z,5.50
2018-07-14T07:12:50.727Z,4.63
2018-07-14T07:13:23.472Z,4.37
2018-07-14T07:13:56.151Z,5.23
2018-07-14T07:14:28.891Z,4.80
2018-07-14T07:15:01.600Z,4.67
2018-07-14T07:15:34.327Z,4.37
2018-07-14T07:16:07.387Z,4.27
2018-07-14T07:16:40.278Z,4.87
2018-07-14T07:17:12.969Z,4.40
2018-07-14T07:17:45.706Z,5.00
2018-07-14T07:18:18.406Z,4.83
2018-07-14T07:18:51.119Z,4.40
2018-07-14T07:19:23.810Z,4.77
2018-07-14T07:19:56.538Z,4.90
2018-07-14T07:20:29.296Z,5.10
2018-07-14T07:21:02.035Z,4.60
2018-07-14T07:21:34.783Z,4.60
2018-07-14T07:22:07.534Z,4.90
2018-07-14T07:22:40.274Z,5.13
2018-07-14T07:23:12.987Z,4.60
2018-07-14T07:23:45.683Z,4.13
2018-07-14T07:24:18.922Z,4.90
2018-07-14T07:24:51.614Z,4.37
2018-07-14T07:25:24.347Z,4.43
2018-07-14T07:25:57.215Z,4.80
2018-07-14T07:26:29.910Z,4.57
2018-07-14T07:27:02.651Z,4.53
2018-07-14T07:27:35.367Z,4.53
2018-07-14T07:28:08.114Z,5.27
2018-07-14T07:28:40.867Z,5.13
2018-07-14T07:29:13.602Z,5.00
2018-07-14T07:29:46.323Z,5.40
2018-07-14T07:30:19.039Z,4.70
2018-07-14T07:30:51.743Z,4.37
2018-07-14T07:31:24.450Z,4.70
2018-07-14T07:31:57.170Z,5.57
2018-07-14T07:32:29.878Z,5.60
2018-07-14T07:33:03.107Z,5.60
2018-07-14T07:33:35.798Z,4.57
2018-07-14T07:34:08.534Z,4.67
2018-07-14T07:34:41.372Z,5.00
2018-07-14T07:35:13.971Z,4.20
2018-07-14T07:35:46.707Z,4.73
2018-07-14T07:36:19.499Z,5.13
2018-07-14T07:36:52.378Z,4.70
2018-07-14T07:37:25.132Z,4.53
2018-07-14T07:37:57.874Z,4.83
2018-07-14T07:38:30.666Z,4.57
2018-07-14T07:39:04.391Z,4.73
2018-07-14T07:39:37.131Z,4.33
2018-07-14T07:40:09.893Z,4.47
2018-07-14T07:40:43.016Z,5.20
2018-07-14T07:41:15.723Z,4.97
2018-07-14T07:41:48.438Z,5.23
2018-07-14T07:42:21.149Z,4.07
2018-07-14T07:42:53.878Z,5.40
2018-07-14T07:43:26.632Z,5.40
2018-07-14T07:43:59.378Z,4.47
2018-07-14T07:44:32.075Z,4.80
2018-07-14T07:45:05.287Z,5.33
2018-07-14T07:45:38.002Z,5.23
2018-07-14T07:46:10.707Z,4.70
2018-07-14T07:46:43.454Z,4.70
2018-07-14T07:47:16.195Z,5.03
2018-07-14T07:47:48.927Z,5.00
2018-07-14T07:48:21.630Z,5.10
2018-07-14T07:48:54.326Z,4.47
2018-07-14T07:49:27.122Z,4.90
2018-07-14T07:49:59.838Z,4.60
2018-07-14T07:50:32.639Z,5.00
2018-07-14T07:51:05.389Z,4.97
2018-07-14T07:51:38.134Z,5.00
2018-07-14T07:52:10.826Z,5.30
2018-07-14T07:52:43.546Z,4.20
2018-07-14T07:53:16.266Z,5.30
2018-07-14T07:53:49.002Z,5.03
2018-07-14T07:54:21.706Z,4.57
2018-07-14T07:54:54.427Z,5.03
2018-07-14T07:55:27.162Z,4.60
2018-07-14T07:55:59.864Z,5.10
2018-07-14T07:56:32.574Z,4.90
2018-07-14T07:57:05.563Z,4.70
2018-07-14T07:57:38.255Z,4.80
2018-07-14T07:58:10.943Z,5.40
2018-07-14T07:58:43.666Z,4.73
2018-07-14T07:59:16.391Z,4.97
2018-07-14T07:59:49.082Z,5.10
2018-07-14T08:00:21.828Z,4.70
2018-07-14T08:00:54.538Z,4.50
2018-07-14T08:01:27.280Z,5.17
2018-07-14T08:02:00.022Z,4.43
2018-07-14T08:02:32.755Z,4.17
2018-07-14T08:03:05.563Z,4.43
2018-07-14T08:03:38.291Z,4.80
2018-07-14T08:04:11.018Z,4.40
2018-07-14T08:04:43.731Z,4.20